sensor_id;sensor_type;location;lat;lon;timestamp;pressure;altitude;pressure_sealevel;temperature;humidity
62895;BME280;49204;44.916;37.998;2023-04-03T00:01:24;100725.06;;;9.99;63.03
62895;BME280;49204;44.916;37.998;2023-04-03T00:03:53;100727.02;;;10.05;63.32
62895;BME280;49204;44.916;37.998;2023-04-03T00:06:24;100718.84;;;10.13;63.23
62895;BME280;49204;44.916;37.998;2023-04-03T00:08:52;100712.43;;;10.20;63.07
62895;BME280;49204;44.916;37.998;2023-04-03T00:11:21;100714.02;;;10.24;62.91
62895;BME280;49204;44.916;37.998;2023-04-03T00:13:50;100708.59;;;10.29;62.95
62895;BME280;49204;44.916;37.998;2023-04-03T00:16:19;100712.71;;;10.36;62.83
62895;BME280;49204;44.916;37.998;2023-04-03T00:18:47;100719.08;;;10.42;62.86
62895;BME280;49204;44.916;37.998;2023-04-03T00:21:16;100710.24;;;10.43;62.64
62895;BME280;49204;44.916;37.998;2023-04-03T00:23:45;100707.09;;;10.46;62.62
62895;BME280;49204;44.916;37.998;2023-04-03T00:26:13;100700.81;;;10.50;63.10
62895;BME280;49204;44.916;37.998;2023-04-03T00:28:42;100684.44;;;10.53;63.17
62895;BME280;49204;44.916;37.998;2023-04-03T00:31:11;100686.49;;;10.57;63.19
62895;BME280;49204;44.916;37.998;2023-04-03T00:33:41;100689.23;;;10.54;63.04
62895;BME280;49204;44.916;37.998;2023-04-03T00:36:11;100696.20;;;10.55;63.02
62895;BME280;49204;44.916;37.998;2023-04-03T00:38:40;100692.25;;;10.55;63.31
62895;BME280;49204;44.916;37.998;2023-04-03T00:41:09;100691.87;;;10.54;63.15
62895;BME280;49204;44.916;37.998;2023-04-03T00:43:38;100705.94;;;10.53;63.44
62895;BME280;49204;44.916;37.998;2023-04-03T00:46:08;100704.35;;;10.49;63.40
62895;BME280;49204;44.916;37.998;2023-04-03T00:48:42;100699.20;;;10.46;63.45
62895;BME280;49204;44.916;37.998;2023-04-03T00:51:25;100700.23;;;10.41;63.31
62895;BME280;49204;44.916;37.998;2023-04-03T00:54:00;100696.34;;;10.40;63.22
62895;BME280;49204;44.916;37.998;2023-04-03T00:56:30;100694.23;;;10.38;63.56
62895;BME280;49204;44.916;37.998;2023-04-03T00:59:04;100695.11;;;10.38;63.43
62895;BME280;49204;44.916;37.998;2023-04-03T01:01:33;100697.61;;;10.41;63.94
62895;BME280;49204;44.916;37.998;2023-04-03T01:04:04;100698.40;;;10.43;63.63
62895;BME280;49204;44.916;37.998;2023-04-03T01:06:35;100695.83;;;10.42;63.59
62895;BME280;49204;44.916;37.998;2023-04-03T01:09:08;100692.81;;;10.41;63.37
62895;BME280;49204;44.916;37.998;2023-04-03T01:11:37;100693.80;;;10.38;63.34
62895;BME280;49204;44.916;37.998;2023-04-03T01:14:05;100696.02;;;10.37;63.40
62895;BME280;49204;44.916;37.998;2023-04-03T01:16:34;100692.07;;;10.37;63.55
62895;BME280;49204;44.916;37.998;2023-04-03T01:19:04;100692.92;;;10.38;63.77
62895;BME280;49204;44.916;37.998;2023-04-03T01:22:15;100703.39;;;10.39;63.86
62895;BME280;49204;44.916;37.998;2023-04-03T01:24:40;100707.34;;;10.39;63.68
62895;BME280;49204;44.916;37.998;2023-04-03T01:27:10;100711.34;;;10.38;63.55
62895;BME280;49204;44.916;37.998;2023-04-03T01:29:40;100710.55;;;10.36;63.48
62895;BME280;49204;44.916;37.998;2023-04-03T01:32:11;100707.06;;;10.35;63.94
62895;BME280;49204;44.916;37.998;2023-04-03T01:34:41;100712.66;;;10.38;64.24
62895;BME280;49204;44.916;37.998;2023-04-03T01:37:10;100701.55;;;10.41;64.79
62895;BME280;49204;44.916;37.998;2023-04-03T01:39:40;100717.63;;;10.46;64.80
62895;BME280;49204;44.916;37.998;2023-04-03T01:42:08;100716.61;;;10.50;64.72
62895;BME280;49204;44.916;37.998;2023-04-03T01:44:40;100713.45;;;10.52;65.09
62895;BME280;49204;44.916;37.998;2023-04-03T01:47:09;100711.61;;;10.54;65.13
62895;BME280;49204;44.916;37.998;2023-04-03T01:49:38;100715.51;;;10.55;65.36
62895;BME280;49204;44.916;37.998;2023-04-03T01:52:07;100723.79;;;10.56;65.19
62895;BME280;49204;44.916;37.998;2023-04-03T01:54:35;100722.03;;;10.57;65.25
62895;BME280;49204;44.916;37.998;2023-04-03T01:57:04;100719.41;;;10.57;65.27
62895;BME280;49204;44.916;37.998;2023-04-03T01:59:33;100721.52;;;10.59;65.46
62895;BME280;49204;44.916;37.998;2023-04-03T02:02:02;100718.36;;;10.61;65.62
62895;BME280;49204;44.916;37.998;2023-04-03T02:04:31;100724.80;;;10.64;65.49
62895;BME280;49204;44.916;37.998;2023-04-03T02:06:59;100728.26;;;10.66;65.29
62895;BME280;49204;44.916;37.998;2023-04-03T02:09:29;100728.58;;;10.69;65.13
62895;BME280;49204;44.916;37.998;2023-04-03T02:11:57;100731.69;;;10.68;65.11
62895;BME280;49204;44.916;37.998;2023-04-03T02:14:26;100732.06;;;10.69;65.23
62895;BME280;49204;44.916;37.998;2023-04-03T02:16:54;100726.41;;;10.68;65.22
62895;BME280;49204;44.916;37.998;2023-04-03T02:19:23;100725.10;;;10.68;65.24
62895;BME280;49204;44.916;37.998;2023-04-03T02:21:52;100719.83;;;10.68;65.35
62895;BME280;49204;44.916;37.998;2023-04-03T02:24:21;100729.84;;;10.70;65.42
62895;BME280;49204;44.916;37.998;2023-04-03T02:26:49;100734.97;;;10.73;65.54
62895;BME280;49204;44.916;37.998;2023-04-03T02:29:18;100730.05;;;10.76;65.59
62895;BME280;49204;44.916;37.998;2023-04-03T02:31:47;100724.73;;;10.77;66.63
62895;BME280;49204;44.916;37.998;2023-04-03T02:34:16;100714.58;;;10.78;66.23
62895;BME280;49204;44.916;37.998;2023-04-03T02:36:45;100716.69;;;10.80;66.07
62895;BME280;49204;44.916;37.998;2023-04-03T02:39:14;100713.67;;;10.79;66.40
62895;BME280;49204;44.916;37.998;2023-04-03T02:41:43;100721.05;;;10.81;66.49
62895;BME280;49204;44.916;37.998;2023-04-03T02:44:14;100725.05;;;10.80;66.87
62895;BME280;49204;44.916;37.998;2023-04-03T02:46:42;100732.11;;;10.79;66.78
62895;BME280;49204;44.916;37.998;2023-04-03T02:49:11;100721.52;;;10.81;67.32
62895;BME280;49204;44.916;37.998;2023-04-03T02:51:40;100717.95;;;10.82;67.17
62895;BME280;49204;44.916;37.998;2023-04-03T02:54:09;100723.62;;;10.83;67.22
62895;BME280;49204;44.916;37.998;2023-04-03T02:56:39;100725.67;;;10.87;67.56
62895;BME280;49204;44.916;37.998;2023-04-03T02:59:07;100728.17;;;10.90;67.85
62895;BME280;49204;44.916;37.998;2023-04-03T03:01:37;100716.31;;;10.90;67.61
62895;BME280;49204;44.916;37.998;2023-04-03T03:04:06;100718.42;;;10.92;67.81
62895;BME280;49204;44.916;37.998;2023-04-03T03:06:35;100724.10;;;10.93;67.84
62895;BME280;49204;44.916;37.998;2023-04-03T03:09:04;100716.98;;;10.95;67.92
62895;BME280;49204;44.916;37.998;2023-04-03T03:11:33;100717.34;;;10.97;67.85
62895;BME280;49204;44.916;37.998;2023-04-03T03:14:02;100718.98;;;11.00;68.44
62895;BME280;49204;44.916;37.998;2023-04-03T03:16:33;100738.63;;;11.03;69.11
62895;BME280;49204;44.916;37.998;2023-04-03T03:19:02;100733.62;;;11.07;68.79
62895;BME280;49204;44.916;37.998;2023-04-03T03:21:30;100724.19;;;11.12;69.15
62895;BME280;49204;44.916;37.998;2023-04-03T03:23:59;100726.71;;;11.15;69.12
62895;BME280;49204;44.916;37.998;2023-04-03T03:26:28;100735.81;;;11.18;68.83
62895;BME280;49204;44.916;37.998;2023-04-03T03:28:57;100742.78;;;11.19;68.63
62895;BME280;49204;44.916;37.998;2023-04-03T03:31:26;100740.94;;;11.21;68.84
62895;BME280;49204;44.916;37.998;2023-04-03T03:33:55;100742.61;;;11.24;68.70
62895;BME280;49204;44.916;37.998;2023-04-03T03:36:23;100759.74;;;11.24;68.28
62895;BME280;49204;44.916;37.998;2023-04-03T03:38:52;100763.55;;;11.27;68.35
62895;BME280;49204;44.916;37.998;2023-04-03T03:41:21;100776.73;;;11.27;68.09
62895;BME280;49204;44.916;37.998;2023-04-03T03:43:50;100771.87;;;11.28;67.66
62895;BME280;49204;44.916;37.998;2023-04-03T03:46:19;100773.66;;;11.27;67.38
62895;BME280;49204;44.916;37.998;2023-04-03T03:48:47;100778.40;;;11.29;67.27
62895;BME280;49204;44.916;37.998;2023-04-03T03:51:17;100776.14;;;11.30;67.54
62895;BME280;49204;44.916;37.998;2023-04-03T03:53:46;100786.63;;;11.32;67.29
62895;BME280;49204;44.916;37.998;2023-04-03T03:56:16;100788.73;;;11.34;67.26
62895;BME280;49204;44.916;37.998;2023-04-03T03:58:45;100781.23;;;11.35;67.44
62895;BME280;49204;44.916;37.998;2023-04-03T04:01:14;100781.12;;;11.38;67.67
62895;BME280;49204;44.916;37.998;2023-04-03T04:03:46;100776.23;;;11.39;67.51
62895;BME280;49204;44.916;37.998;2023-04-03T04:06:18;100773.06;;;11.41;67.64
62895;BME280;49204;44.916;37.998;2023-04-03T04:08:47;100778.69;;;11.44;67.47
62895;BME280;49204;44.916;37.998;2023-04-03T04:11:16;100773.73;;;11.46;67.74
62895;BME280;49204;44.916;37.998;2023-04-03T04:13:46;100781.91;;;11.50;67.99
62895;BME280;49204;44.916;37.998;2023-04-03T04:16:15;100779.53;;;11.54;67.80
62895;BME280;49204;44.916;37.998;2023-04-03T04:18:44;100783.36;;;11.57;67.93
62895;BME280;49204;44.916;37.998;2023-04-03T04:21:12;100781.45;;;11.61;67.85
62895;BME280;49204;44.916;37.998;2023-04-03T04:23:41;100789.63;;;11.65;67.68
62895;BME280;49204;44.916;37.998;2023-04-03T04:26:10;100788.24;;;11.67;67.58
62895;BME280;49204;44.916;37.998;2023-04-03T04:28:39;100785.86;;;11.71;67.57
62895;BME280;49204;44.916;37.998;2023-04-03T04:31:11;100784.42;;;11.74;67.38
62895;BME280;49204;44.916;37.998;2023-04-03T04:33:38;100780.88;;;11.75;67.35
62895;BME280;49204;44.916;37.998;2023-04-03T04:36:08;100787.73;;;11.79;67.05
62895;BME280;49204;44.916;37.998;2023-04-03T04:38:37;100793.79;;;11.81;66.89
62895;BME280;49204;44.916;37.998;2023-04-03T04:41:06;100782.98;;;11.77;67.25
62895;BME280;49204;44.916;37.998;2023-04-03T04:43:35;100780.88;;;11.75;67.11
62895;BME280;49204;44.916;37.998;2023-04-03T04:46:07;100785.69;;;11.75;66.98
62895;BME280;49204;44.916;37.998;2023-04-03T04:48:37;100782.70;;;11.73;66.95
62895;BME280;49204;44.916;37.998;2023-04-03T04:51:07;100778.36;;;11.72;66.78
62895;BME280;49204;44.916;37.998;2023-04-03T04:53:36;100793.34;;;11.71;66.67
62895;BME280;49204;44.916;37.998;2023-04-03T04:56:06;100799.46;;;11.72;66.48
62895;BME280;49204;44.916;37.998;2023-04-03T04:58:35;100800.25;;;11.74;66.33
62895;BME280;49204;44.916;37.998;2023-04-03T05:01:06;100792.87;;;11.72;66.27
62895;BME280;49204;44.916;37.998;2023-04-03T05:03:37;100803.16;;;11.68;66.38
62895;BME280;49204;44.916;37.998;2023-04-03T05:06:06;100792.73;;;11.65;66.32
62895;BME280;49204;44.916;37.998;2023-04-03T05:08:35;100799.85;;;11.63;66.21
62895;BME280;49204;44.916;37.998;2023-04-03T05:11:04;100788.52;;;11.61;66.20
62895;BME280;49204;44.916;37.998;2023-04-03T05:13:34;100793.32;;;11.61;66.12
62895;BME280;49204;44.916;37.998;2023-04-03T05:16:03;100799.06;;;11.61;66.02
62895;BME280;49204;44.916;37.998;2023-04-03T05:18:32;100803.40;;;11.62;65.98
62895;BME280;49204;44.916;37.998;2023-04-03T05:21:03;100802.81;;;11.65;65.85
62895;BME280;49204;44.916;37.998;2023-04-03T05:23:31;100806.64;;;11.68;65.78
62895;BME280;49204;44.916;37.998;2023-04-03T05:26:02;100805.86;;;11.66;65.87
62895;BME280;49204;44.916;37.998;2023-04-03T05:28:31;100805.92;;;11.65;65.80
62895;BME280;49204;44.916;37.998;2023-04-03T05:31:00;100804.19;;;11.64;65.77
62895;BME280;49204;44.916;37.998;2023-04-03T05:33:30;100813.10;;;11.61;65.70
62895;BME280;49204;44.916;37.998;2023-04-03T05:36:04;100808.41;;;11.57;65.72
62895;BME280;49204;44.916;37.998;2023-04-03T05:38:34;100814.10;;;11.58;65.77
62895;BME280;49204;44.916;37.998;2023-04-03T05:41:03;100814.10;;;11.58;65.51
62895;BME280;49204;44.916;37.998;2023-04-03T05:43:33;100818.00;;;11.60;65.54
62895;BME280;49204;44.916;37.998;2023-04-03T05:46:03;100820.36;;;11.66;65.38
62895;BME280;49204;44.916;37.998;2023-04-03T05:48:32;100814.44;;;11.71;65.61
62895;BME280;49204;44.916;37.998;2023-04-03T05:51:01;100816.98;;;11.73;65.40
62895;BME280;49204;44.916;37.998;2023-04-03T05:53:33;100819.13;;;11.75;65.39
62895;BME280;49204;44.916;37.998;2023-04-03T05:56:03;100807.98;;;11.78;65.21
62895;BME280;49204;44.916;37.998;2023-04-03T05:58:34;100821.69;;;11.87;65.04
62895;BME280;49204;44.916;37.998;2023-04-03T06:01:03;100814.00;;;11.92;64.96
62895;BME280;49204;44.916;37.998;2023-04-03T06:03:32;100824.81;;;11.96;64.79
62895;BME280;49204;44.916;37.998;2023-04-03T06:06:03;100827.20;;;12.03;64.66
62895;BME280;49204;44.916;37.998;2023-04-03T06:08:33;100830.75;;;12.12;64.46
62895;BME280;49204;44.916;37.998;2023-04-03T06:11:02;100835.16;;;12.22;64.24
62895;BME280;49204;44.916;37.998;2023-04-03T06:13:30;100845.84;;;12.29;64.06
62895;BME280;49204;44.916;37.998;2023-04-03T06:16:00;100842.61;;;12.32;63.96
62895;BME280;49204;44.916;37.998;2023-04-03T06:18:30;100845.81;;;12.39;63.77
62895;BME280;49204;44.916;37.998;2023-04-03T06:20:59;100848.13;;;12.47;63.52
62895;BME280;49204;44.916;37.998;2023-04-03T06:23:28;100846.77;;;12.57;63.38
62895;BME280;49204;44.916;37.998;2023-04-03T06:25:57;100846.28;;;12.68;63.05
62895;BME280;49204;44.916;37.998;2023-04-03T06:28:25;100838.13;;;12.72;62.81
62895;BME280;49204;44.916;37.998;2023-04-03T06:30:54;100831.80;;;12.77;62.61
62895;BME280;49204;44.916;37.998;2023-04-03T06:33:23;100832.75;;;12.84;62.56
62895;BME280;49204;44.916;37.998;2023-04-03T06:36:03;100834.73;;;12.98;62.28
62895;BME280;49204;44.916;37.998;2023-04-03T06:38:26;100831.98;;;13.10;62.00
62895;BME280;49204;44.916;37.998;2023-04-03T06:40:54;100838.95;;;13.30;61.62
62895;BME280;49204;44.916;37.998;2023-04-03T06:43:23;100837.30;;;13.46;61.28
62895;BME280;49204;44.916;37.998;2023-04-03T06:45:52;100841.19;;;13.57;60.75
62895;BME280;49204;44.916;37.998;2023-04-03T06:48:21;100841.96;;;13.59;60.56
62895;BME280;49204;44.916;37.998;2023-04-03T06:50:49;100837.52;;;13.59;60.34
62895;BME280;49204;44.916;37.998;2023-04-03T06:53:18;100841.81;;;13.97;60.17
62895;BME280;49204;44.916;37.998;2023-04-03T06:55:47;100837.52;;;14.78;60.18
62895;BME280;49204;44.916;37.998;2023-04-03T06:58:15;100835.50;;;16.13;59.58
62895;BME280;49204;44.916;37.998;2023-04-03T07:00:45;100830.41;;;17.36;57.88
62895;BME280;49204;44.916;37.998;2023-04-03T07:03:14;100835.52;;;18.38;54.81
62895;BME280;49204;44.916;37.998;2023-04-03T07:05:43;100818.63;;;19.13;49.72
62895;BME280;49204;44.916;37.998;2023-04-03T07:08:12;100820.15;;;19.58;48.32
62895;BME280;49204;44.916;37.998;2023-04-03T07:10:41;100810.59;;;20.19;46.55
62895;BME280;49204;44.916;37.998;2023-04-03T07:13:09;100819.47;;;20.76;45.58
62895;BME280;49204;44.916;37.998;2023-04-03T07:15:38;100808.53;;;21.29;43.88
62895;BME280;49204;44.916;37.998;2023-04-03T07:18:06;100804.61;;;21.86;42.73
62895;BME280;49204;44.916;37.998;2023-04-03T07:20:35;100812.50;;;22.09;40.81
62895;BME280;49204;44.916;37.998;2023-04-03T07:23:04;100797.95;;;22.17;38.98
62895;BME280;49204;44.916;37.998;2023-04-03T07:25:32;100805.33;;;21.88;38.29
62895;BME280;49204;44.916;37.998;2023-04-03T07:28:01;100812.88;;;21.68;36.82
62895;BME280;49204;44.916;37.998;2023-04-03T07:30:31;100812.17;;;21.28;37.51
62895;BME280;49204;44.916;37.998;2023-04-03T07:32:59;100815.25;;;20.68;36.65
62895;BME280;49204;44.916;37.998;2023-04-03T07:35:28;100807.65;;;19.89;37.56
62895;BME280;49204;44.916;37.998;2023-04-03T07:37:56;100822.21;;;19.60;38.54
62895;BME280;49204;44.916;37.998;2023-04-03T07:40:25;100808.00;;;19.24;38.70
62895;BME280;49204;44.916;37.998;2023-04-03T07:42:54;100814.24;;;19.12;39.37
62895;BME280;49204;44.916;37.998;2023-04-03T07:45:24;100815.86;;;19.15;39.36
62895;BME280;49204;44.916;37.998;2023-04-03T07:47:52;100824.52;;;19.54;39.82
62895;BME280;49204;44.916;37.998;2023-04-03T07:50:21;100826.91;;;19.75;39.64
62895;BME280;49204;44.916;37.998;2023-04-03T07:52:50;100836.02;;;20.42;39.26
62895;BME280;49204;44.916;37.998;2023-04-03T07:55:20;100830.91;;;21.28;38.72
62895;BME280;49204;44.916;37.998;2023-04-03T07:57:49;100833.23;;;22.22;35.51
62895;BME280;49204;44.916;37.998;2023-04-03T08:00:19;100825.25;;;22.63;34.71
62895;BME280;49204;44.916;37.998;2023-04-03T08:02:48;100821.69;;;23.28;34.60
62895;BME280;49204;44.916;37.998;2023-04-03T08:05:19;100821.38;;;23.89;34.37
62895;BME280;49204;44.916;37.998;2023-04-03T08:07:48;100829.16;;;24.40;33.58
62895;BME280;49204;44.916;37.998;2023-04-03T08:10:17;100820.37;;;24.89;33.54
62895;BME280;49204;44.916;37.998;2023-04-03T08:12:47;100824.23;;;25.04;32.53
62895;BME280;49204;44.916;37.998;2023-04-03T08:15:15;100827.25;;;25.01;31.55
62895;BME280;49204;44.916;37.998;2023-04-03T08:17:44;100829.66;;;24.91;31.58
62895;BME280;49204;44.916;37.998;2023-04-03T08:20:13;100827.55;;;24.98;31.96
62895;BME280;49204;44.916;37.998;2023-04-03T08:22:41;100829.13;;;25.23;31.01
62895;BME280;49204;44.916;37.998;2023-04-03T08:25:10;100819.06;;;25.07;30.20
62895;BME280;49204;44.916;37.998;2023-04-03T08:27:39;100851.30;;;24.57;30.05
62895;BME280;49204;44.916;37.998;2023-04-03T08:30:08;100843.67;;;24.43;30.09
62895;BME280;49204;44.916;37.998;2023-04-03T08:32:37;100840.56;;;24.38;30.96
62895;BME280;49204;44.916;37.998;2023-04-03T08:35:06;100836.27;;;24.55;30.16
62895;BME280;49204;44.916;37.998;2023-04-03T08:37:38;100844.64;;;24.52;30.02
62895;BME280;49204;44.916;37.998;2023-04-03T08:40:12;100858.48;;;24.66;30.17
62895;BME280;49204;44.916;37.998;2023-04-03T08:48:05;100867.92;;;24.09;30.95
62895;BME280;49204;44.916;37.998;2023-04-03T08:50:37;100859.63;;;24.40;30.71
62895;BME280;49204;44.916;37.998;2023-04-03T08:53:10;100863.36;;;24.95;31.08
62895;BME280;49204;44.916;37.998;2023-04-03T08:55:45;100843.05;;;25.00;30.35
62895;BME280;49204;44.916;37.998;2023-04-03T08:58:22;100867.95;;;24.98;29.90
62895;BME280;49204;44.916;37.998;2023-04-03T09:01:00;100872.72;;;25.04;30.64
62895;BME280;49204;44.916;37.998;2023-04-03T09:03:36;100874.05;;;24.87;29.79
62895;BME280;49204;44.916;37.998;2023-04-03T09:06:16;100858.28;;;24.78;30.22
62895;BME280;49204;44.916;37.998;2023-04-03T09:14:35;100861.21;;;24.98;30.91
62895;BME280;49204;44.916;37.998;2023-04-03T09:17:15;100879.56;;;25.27;30.59
62895;BME280;49204;44.916;37.998;2023-04-03T09:22:21;100877.05;;;25.25;30.00
62895;BME280;49204;44.916;37.998;2023-04-03T09:27:43;100892.66;;;24.56;30.48
62895;BME280;49204;44.916;37.998;2023-04-03T09:30:20;100875.61;;;23.85;31.61
62895;BME280;49204;44.916;37.998;2023-04-03T09:32:49;100891.34;;;23.55;32.23
62895;BME280;49204;44.916;37.998;2023-04-03T09:35:21;100895.73;;;23.65;32.17
62895;BME280;49204;44.916;37.998;2023-04-03T09:38:00;100893.50;;;23.80;32.19
62895;BME280;49204;44.916;37.998;2023-04-03T09:40:30;100856.03;;;24.02;32.07
62895;BME280;49204;44.916;37.998;2023-04-03T09:43:02;100898.14;;;23.78;32.18
62895;BME280;49204;44.916;37.998;2023-04-03T09:45:33;100883.88;;;23.87;32.22
62895;BME280;49204;44.916;37.998;2023-04-03T09:50:54;100913.95;;;24.30;32.16
62895;BME280;49204;44.916;37.998;2023-04-03T09:53:39;100917.68;;;24.43;32.06
62895;BME280;49204;44.916;37.998;2023-04-03T09:56:21;100927.42;;;24.11;31.59
62895;BME280;49204;44.916;37.998;2023-04-03T10:01:32;100929.34;;;23.21;33.84
62895;BME280;49204;44.916;37.998;2023-04-03T10:04:16;100934.06;;;22.46;35.90
62895;BME280;49204;44.916;37.998;2023-04-03T10:06:50;100961.00;;;22.23;37.03
62895;BME280;49204;44.916;37.998;2023-04-03T10:09:22;100951.05;;;22.14;37.33
62895;BME280;49204;44.916;37.998;2023-04-03T10:12:12;100953.10;;;21.95;37.78
62895;BME280;49204;44.916;37.998;2023-04-03T10:14:40;100956.38;;;21.61;38.57
62895;BME280;49204;44.916;37.998;2023-04-03T10:20:05;100970.78;;;21.26;39.58
62895;BME280;49204;44.916;37.998;2023-04-03T10:22:35;100947.11;;;21.65;39.12
62895;BME280;49204;44.916;37.998;2023-04-03T10:25:17;100952.28;;;21.23;39.59
62895;BME280;49204;44.916;37.998;2023-04-03T10:30:29;100968.86;;;21.05;39.80
62895;BME280;49204;44.916;37.998;2023-04-03T10:47:31;100992.55;;;20.29;41.11
62895;BME280;49204;44.916;37.998;2023-04-03T10:50:57;100979.22;;;20.40;41.35
62895;BME280;49204;44.916;37.998;2023-04-03T10:55:40;101010.95;;;20.80;40.47
62895;BME280;49204;44.916;37.998;2023-04-03T10:58:17;101006.42;;;20.64;41.00
62895;BME280;49204;44.916;37.998;2023-04-03T11:00:45;100998.19;;;20.49;41.04
62895;BME280;49204;44.916;37.998;2023-04-03T11:03:24;100986.16;;;20.54;41.46
62895;BME280;49204;44.916;37.998;2023-04-03T11:05:54;100972.42;;;20.48;41.70
62895;BME280;49204;44.916;37.998;2023-04-03T11:08:32;100997.65;;;20.32;42.11
62895;BME280;49204;44.916;37.998;2023-04-03T11:11:03;100975.66;;;20.34;42.09
62895;BME280;49204;44.916;37.998;2023-04-03T11:13:46;101012.43;;;20.19;42.54
62895;BME280;49204;44.916;37.998;2023-04-03T11:16:14;101025.26;;;19.84;43.12
62895;BME280;49204;44.916;37.998;2023-04-03T11:18:49;101024.47;;;19.58;43.55
62895;BME280;49204;44.916;37.998;2023-04-03T11:21:32;101038.03;;;19.05;44.20
62895;BME280;49204;44.916;37.998;2023-04-03T11:23:59;101033.34;;;18.43;45.43
62895;BME280;49204;44.916;37.998;2023-04-03T11:26:31;101031.58;;;17.89;46.75
62895;BME280;49204;44.916;37.998;2023-04-03T11:29:03;101035.34;;;17.51;47.97
62895;BME280;49204;44.916;37.998;2023-04-03T11:36:59;101035.84;;;16.63;50.48
62895;BME280;49204;44.916;37.998;2023-04-03T11:39:32;101030.14;;;16.54;50.38
62895;BME280;49204;44.916;37.998;2023-04-03T11:44:48;101035.93;;;16.61;50.63
62895;BME280;49204;44.916;37.998;2023-04-03T11:50:27;101025.32;;;16.31;51.61
62895;BME280;49204;44.916;37.998;2023-04-03T12:11:28;101028.65;;;15.63;53.73
62895;BME280;49204;44.916;37.998;2023-04-03T12:19:32;101016.67;;;15.40;54.65
62895;BME280;49204;44.916;37.998;2023-04-03T12:24:36;101041.22;;;15.19;55.20
62895;BME280;49204;44.916;37.998;2023-04-03T12:29:47;101040.09;;;15.08;55.86
62895;BME280;49204;44.916;37.998;2023-04-03T12:38:30;101041.83;;;15.00;56.24
62895;BME280;49204;44.916;37.998;2023-04-03T12:46:45;101041.05;;;14.98;56.41
62895;BME280;49204;44.916;37.998;2023-04-03T12:49:32;101043.92;;;15.02;56.51
62895;BME280;49204;44.916;37.998;2023-04-03T12:51:57;101054.17;;;14.92;57.10
62895;BME280;49204;44.916;37.998;2023-04-03T12:54:37;101054.47;;;14.86;57.42
62895;BME280;49204;44.916;37.998;2023-04-03T12:57:17;101074.59;;;14.73;57.88
62895;BME280;49204;44.916;37.998;2023-04-03T12:59:47;101074.58;;;14.55;58.19
62895;BME280;49204;44.916;37.998;2023-04-03T13:02:21;101068.93;;;14.44;58.76
62895;BME280;49204;44.916;37.998;2023-04-03T13:04:53;101070.02;;;14.40;59.17
62895;BME280;49204;44.916;37.998;2023-04-03T13:07:30;101062.39;;;14.34;59.48
62895;BME280;49204;44.916;37.998;2023-04-03T13:12:56;101078.19;;;14.26;59.92
62895;BME280;49204;44.916;37.998;2023-04-03T13:15:30;101079.68;;;14.32;59.88
62895;BME280;49204;44.916;37.998;2023-04-03T13:18:00;101082.17;;;14.26;60.07
62895;BME280;49204;44.916;37.998;2023-04-03T13:20:31;101094.67;;;14.14;60.28
62895;BME280;49204;44.916;37.998;2023-04-03T13:23:02;101091.24;;;14.12;60.37
62895;BME280;49204;44.916;37.998;2023-04-03T13:25:34;101100.27;;;14.08;60.57
62895;BME280;49204;44.916;37.998;2023-04-03T13:28:05;101101.19;;;14.07;60.53
62895;BME280;49204;44.916;37.998;2023-04-03T13:30:37;101097.77;;;14.05;60.64
62895;BME280;49204;44.916;37.998;2023-04-03T13:33:24;101099.49;;;14.06;60.66
62895;BME280;49204;44.916;37.998;2023-04-03T13:36:03;101097.48;;;14.11;60.68
62895;BME280;49204;44.916;37.998;2023-04-03T13:38:30;101107.13;;;14.12;60.86
62895;BME280;49204;44.916;37.998;2023-04-03T13:41:20;101105.16;;;14.07;60.84
62895;BME280;49204;44.916;37.998;2023-04-03T13:43:37;101085.03;;;13.94;61.08
62895;BME280;49204;44.916;37.998;2023-04-03T13:48:46;101107.25;;;13.81;61.60
62895;BME280;49204;44.916;37.998;2023-04-03T13:51:18;101104.36;;;13.77;61.98
62895;BME280;49204;44.916;37.998;2023-04-03T13:54:01;101107.67;;;13.72;62.33
62895;BME280;49204;44.916;37.998;2023-04-03T13:56:39;101105.73;;;13.67;62.27
62895;BME280;49204;44.916;37.998;2023-04-03T14:07:13;101098.23;;;13.47;62.63
62895;BME280;49204;44.916;37.998;2023-04-03T14:09:43;101090.95;;;13.53;62.58
62895;BME280;49204;44.916;37.998;2023-04-03T14:12:36;101101.11;;;13.62;62.49
62895;BME280;49204;44.916;37.998;2023-04-03T14:15:14;101100.44;;;13.67;62.18
62895;BME280;49204;44.916;37.998;2023-04-03T14:17:35;101110.96;;;13.68;62.16
62895;BME280;49204;44.916;37.998;2023-04-03T14:20:05;101125.28;;;13.73;61.96
62895;BME280;49204;44.916;37.998;2023-04-03T14:22:34;101120.22;;;13.68;62.17
62895;BME280;49204;44.916;37.998;2023-04-03T14:25:03;101118.69;;;13.63;62.38
62895;BME280;49204;44.916;37.998;2023-04-03T14:27:38;101113.69;;;13.57;62.58
62895;BME280;49204;44.916;37.998;2023-04-03T14:32:44;101119.08;;;13.45;62.86
62895;BME280;49204;44.916;37.998;2023-04-03T14:35:14;101117.38;;;13.34;63.35
62895;BME280;49204;44.916;37.998;2023-04-03T14:37:44;101119.55;;;13.34;63.06
62895;BME280;49204;44.916;37.998;2023-04-03T14:40:17;101125.37;;;13.32;63.26
62895;BME280;49204;44.916;37.998;2023-04-03T14:42:45;101122.33;;;13.31;63.10
62895;BME280;49204;44.916;37.998;2023-04-03T14:45:17;101117.06;;;13.29;63.28
62895;BME280;49204;44.916;37.998;2023-04-03T14:47:52;101120.30;;;13.26;63.49
62895;BME280;49204;44.916;37.998;2023-04-03T14:50:26;101114.23;;;13.24;63.77
62895;BME280;49204;44.916;37.998;2023-04-03T14:52:57;101122.64;;;13.23;63.53